Impacts TAF Board
For situational awareness. Not to be used for flight planning purposes.
IDs:

KGUP - Gallup Muni, NM, US

Issued at 1732 UTC 01 Feb 2023
Updated at 2144 UTC 01 Feb 2023
Potential Impact None Slight Moderate High
Time2053Z 01/22Z 01/23Z 02/00Z 02/01Z 02/02Z 02/03Z 02/04Z 02/05Z 02/06Z 02/07Z 02/08Z 02/09Z 02/10Z>>
Type OBS PRVL PRVL PRVL PRVL PRVL PRVL PRVL PRVL PRVL PRVL PRVL PRVL PRVL
VIS 10 >6 >6 >6 >6 >6 >6 >6 >6 >6 >6 >6 >6 >6
CIG -- -- -- -- -- -- -- -- -- -- -- -- -- --
Cover CLR SKC SKC SKC FEW FEW FEW FEW FEW FEW FEW FEW FEW FEW
FltCat VFR VFR VFR VFR VFR VFR VFR VFR VFR VFR VFR VFR VFR VFR
WX -- -- -- -- -- -- -- -- -- -- -- -- -- --
WDir 340 20 20 20 VRB VRB VRB VRB VRB VRB VRB VRB VRB VRB
WSpd 7 6 6 6 6 6 6 6 6 6 6 6 6 6
WGst -- -- -- -- -- -- -- -- -- -- -- -- -- --
WSHgt -- -- -- -- -- -- -- -- -- -- -- -- -- --
WSDir -- -- -- -- -- -- -- -- -- -- -- -- -- --
WSSpd -- -- -- -- -- -- -- -- -- -- -- -- -- --
R06/24
XWnd 7 5 5 5 VRB VRB VRB VRB VRB VRB VRB VRB VRB VRB
HWnd -0 4 4 4 VRB VRB VRB VRB VRB VRB VRB VRB VRB VRB

NOTE: LAMP data beyond the time of the TAF data is denoted as LAMP in Type and colored magenta.

Raw TAF
KGUP 011732Z 0118/0218 02006KT P6SM SKC
  FM020100 VRB06KT P6SM FEW250


Raw METAR
KGUP 012053Z AUTO 34007KT 10SM CLR 03/M10 A3014 RMK AO2 SLP236 T00281100 56017
KGUP 011953Z AUTO 33008KT 10SM CLR 02/M09 A3016 RMK AO2 SLP246 T00221094
KGUP 011853Z AUTO 29005KT 10SM CLR 01/M11 A3019 RMK AO2 SLP256 T00111106

METAR Board
Radar Display
Forecast Discussion

For situational awareness. Not to be used for flight planning purposes.